VDPP

Phnom Penh International Airport

Airport
ICAO code
VDPP
IATA Code
PNH
Summary
ICAO Region
APAC
ICAO Territory
Location

Phnom Penh, Phnom Penh

Serving
Phnom Penh
Elevation
40 ft
Coordinates
11° 32' 46" N , 104° 50' 52" E
KCC
Metar
Observation
VDPP 302130Z 02005KT 340V040 9999 FEW017 22/17 Q1010
Station
Phnom-Penh / Pochentong
Date/Time
2023-01-30 22:30:00
Wind direction
20°
Wind speed
05 kts
Lowest cloud amount
few clouds
Temperature
22°C
Dew point
17°C
Humidity
73%
QNH
1010 hPa
Weather condition
n/a

International airport serving Phnom Penh, Cambodia. It is located 7 km west of Phnom Penh, the nation's capital.

Climatology

Tropical Savanna climate (Köppen climate classification Aw)

Airport map

Aerial View

SKYbrary Partners:

Safety knowledge contributed by: